sensor_id;sensor_type;location;lat;lon;timestamp;pressure;altitude;pressure_sealevel;temperature;humidity
46722;BME280;32455;43.430;23.136;2022-09-16T00:02:03;97400.69;;;25.95;36.42
46722;BME280;32455;43.430;23.136;2022-09-16T00:04:49;97402.72;;;25.86;37.06
46722;BME280;32455;43.430;23.136;2022-09-16T00:07:34;97405.00;;;25.84;36.67
46722;BME280;32455;43.430;23.136;2022-09-16T00:10:19;97402.25;;;25.84;36.83
46722;BME280;32455;43.430;23.136;2022-09-16T00:13:04;97427.84;;;25.85;36.83
46722;BME280;32455;43.430;23.136;2022-09-16T00:15:50;97424.50;;;25.79;36.83
46722;BME280;32455;43.430;23.136;2022-09-16T00:18:35;97429.22;;;25.91;37.02
46722;BME280;32455;43.430;23.136;2022-09-16T00:21:21;97431.00;;;25.75;37.58
46722;BME280;32455;43.430;23.136;2022-09-16T00:24:06;97421.28;;;25.56;38.61
46722;BME280;32455;43.430;23.136;2022-09-16T00:26:51;97426.25;;;25.63;38.09
46722;BME280;32455;43.430;23.136;2022-09-16T00:29:37;97418.13;;;25.66;38.44
46722;BME280;32455;43.430;23.136;2022-09-16T00:32:22;97417.19;;;25.62;38.79
46722;BME280;32455;43.430;23.136;2022-09-16T00:35:08;97407.56;;;25.68;38.83
46722;BME280;32455;43.430;23.136;2022-09-16T00:37:54;97412.47;;;25.84;38.74
46722;BME280;32455;43.430;23.136;2022-09-16T00:40:45;97416.88;;;25.76;39.90
46722;BME280;32455;43.430;23.136;2022-09-16T00:43:58;97419.00;;;25.79;39.30
46722;BME280;32455;43.430;23.136;2022-09-16T00:46:46;97427.38;;;25.83;39.14
46722;BME280;32455;43.430;23.136;2022-09-16T00:49:32;97409.38;;;25.85;39.32
46722;BME280;32455;43.430;23.136;2022-09-16T00:52:18;97422.09;;;25.90;39.30
46722;BME280;32455;43.430;23.136;2022-09-16T00:55:08;97447.44;;;25.83;39.48
46722;BME280;32455;43.430;23.136;2022-09-16T00:57:56;97444.81;;;25.87;39.48
46722;BME280;32455;43.430;23.136;2022-09-16T01:00:44;97459.47;;;25.79;39.97
46722;BME280;32455;43.430;23.136;2022-09-16T01:03:34;97458.78;;;25.82;39.89
46722;BME280;32455;43.430;23.136;2022-09-16T01:06:23;97454.44;;;25.81;40.32
46722;BME280;32455;43.430;23.136;2022-09-16T01:09:11;97441.06;;;25.70;40.33
46722;BME280;32455;43.430;23.136;2022-09-16T01:11:57;97432.88;;;25.83;40.21
46722;BME280;32455;43.430;23.136;2022-09-16T01:14:42;97421.47;;;25.72;40.88
46722;BME280;32455;43.430;23.136;2022-09-16T01:17:46;97404.59;;;25.73;40.86
46722;BME280;32455;43.430;23.136;2022-09-16T01:39:57;97448.69;;;25.53;42.25
46722;BME280;32455;43.430;23.136;2022-09-16T01:46:02;97448.03;;;25.35;43.10
46722;BME280;32455;43.430;23.136;2022-09-16T01:49:14;97448.31;;;25.42;42.93
46722;BME280;32455;43.430;23.136;2022-09-16T01:52:29;97444.22;;;25.27;43.76
46722;BME280;32455;43.430;23.136;2022-09-16T01:55:29;97449.31;;;25.16;44.08
46722;BME280;32455;43.430;23.136;2022-09-16T01:58:26;97460.03;;;25.09;44.29
46722;BME280;32455;43.430;23.136;2022-09-16T02:01:35;97465.84;;;25.08;44.47
46722;BME280;32455;43.430;23.136;2022-09-16T02:04:30;97455.13;;;24.94;45.09
46722;BME280;32455;43.430;23.136;2022-09-16T02:07:20;97458.22;;;24.92;45.00
46722;BME280;32455;43.430;23.136;2022-09-16T02:10:14;97456.31;;;24.84;45.54
46722;BME280;32455;43.430;23.136;2022-09-16T02:13:07;97453.75;;;24.79;45.88
46722;BME280;32455;43.430;23.136;2022-09-16T02:15:59;97438.75;;;24.77;46.06
46722;BME280;32455;43.430;23.136;2022-09-16T02:18:49;97447.81;;;24.47;46.99
46722;BME280;32455;43.430;23.136;2022-09-16T02:21:37;97441.69;;;24.42;46.75
46722;BME280;32455;43.430;23.136;2022-09-16T02:24:25;97422.63;;;24.37;46.84
46722;BME280;32455;43.430;23.136;2022-09-16T02:27:15;97437.03;;;24.34;47.24
46722;BME280;32455;43.430;23.136;2022-09-16T02:30:08;97428.03;;;24.24;47.59
46722;BME280;32455;43.430;23.136;2022-09-16T02:33:04;97435.50;;;24.15;48.05
46722;BME280;32455;43.430;23.136;2022-09-16T02:35:52;97416.97;;;24.04;47.77
46722;BME280;32455;43.430;23.136;2022-09-16T02:38:46;97450.81;;;24.16;47.01
46722;BME280;32455;43.430;23.136;2022-09-16T02:41:32;97450.88;;;23.99;47.39
46722;BME280;32455;43.430;23.136;2022-09-16T02:44:19;97475.88;;;24.06;47.09
46722;BME280;32455;43.430;23.136;2022-09-16T02:47:41;97474.25;;;24.05;47.57
46722;BME280;32455;43.430;23.136;2022-09-16T02:50:49;97476.91;;;23.76;49.51
46722;BME280;32455;43.430;23.136;2022-09-16T02:53:50;97479.50;;;23.72;49.51
46722;BME280;32455;43.430;23.136;2022-09-16T02:56:39;97488.84;;;23.62;49.43
46722;BME280;32455;43.430;23.136;2022-09-16T02:59:25;97476.63;;;23.68;48.68
46722;BME280;32455;43.430;23.136;2022-09-16T03:02:11;97470.81;;;23.70;48.66
46722;BME280;32455;43.430;23.136;2022-09-16T03:04:57;97476.72;;;23.63;49.02
46722;BME280;32455;43.430;23.136;2022-09-16T03:07:45;97473.22;;;23.37;49.88
46722;BME280;32455;43.430;23.136;2022-09-16T03:10:38;97466.75;;;23.33;49.88
46722;BME280;32455;43.430;23.136;2022-09-16T03:13:34;97480.47;;;23.33;50.02
46722;BME280;32455;43.430;23.136;2022-09-16T03:16:35;97481.59;;;23.40;50.12
46722;BME280;32455;43.430;23.136;2022-09-16T03:26:02;97464.28;;;22.79;52.82
46722;BME280;32455;43.430;23.136;2022-09-16T03:29:11;97452.25;;;23.06;51.23
46722;BME280;32455;43.430;23.136;2022-09-16T03:32:11;97452.09;;;23.11;50.97
46722;BME280;32455;43.430;23.136;2022-09-16T03:37:54;97453.38;;;23.05;51.33
46722;BME280;32455;43.430;23.136;2022-09-16T03:40:42;97455.97;;;23.19;49.30
46722;BME280;32455;43.430;23.136;2022-09-16T03:43:28;97465.16;;;23.49;48.32
46722;BME280;32455;43.430;23.136;2022-09-16T03:46:17;97454.97;;;23.49;48.16
46722;BME280;32455;43.430;23.136;2022-09-16T03:49:02;97443.84;;;23.37;48.47
46722;BME280;32455;43.430;23.136;2022-09-16T03:51:48;97435.16;;;23.18;49.02
46722;BME280;32455;43.430;23.136;2022-09-16T03:54:34;97430.47;;;23.36;49.26
46722;BME280;32455;43.430;23.136;2022-09-16T03:57:19;97436.13;;;23.31;48.78
46722;BME280;32455;43.430;23.136;2022-09-16T04:00:05;97439.03;;;23.34;49.08
46722;BME280;32455;43.430;23.136;2022-09-16T04:02:51;97451.28;;;23.28;49.24
46722;BME280;32455;43.430;23.136;2022-09-16T04:05:36;97433.06;;;23.23;49.65
46722;BME280;32455;43.430;23.136;2022-09-16T04:08:22;97441.28;;;23.32;49.33
46722;BME280;32455;43.430;23.136;2022-09-16T04:11:09;97453.84;;;23.07;50.86
46722;BME280;32455;43.430;23.136;2022-09-16T04:13:54;97455.97;;;23.10;50.46
46722;BME280;32455;43.430;23.136;2022-09-16T04:16:39;97456.75;;;23.11;50.58
46722;BME280;32455;43.430;23.136;2022-09-16T04:19:25;97468.34;;;23.08;50.93
46722;BME280;32455;43.430;23.136;2022-09-16T04:22:11;97457.38;;;22.99;50.91
46722;BME280;32455;43.430;23.136;2022-09-16T04:24:56;97466.91;;;22.93;51.25
46722;BME280;32455;43.430;23.136;2022-09-16T04:27:42;97479.19;;;23.04;51.16
46722;BME280;32455;43.430;23.136;2022-09-16T04:30:27;97469.16;;;22.99;51.61
46722;BME280;32455;43.430;23.136;2022-09-16T04:33:13;97476.84;;;22.89;52.60
46722;BME280;32455;43.430;23.136;2022-09-16T04:36:18;97479.91;;;22.79;53.96
46722;BME280;32455;43.430;23.136;2022-09-16T04:39:04;97468.41;;;22.59;54.29
46722;BME280;32455;43.430;23.136;2022-09-16T04:41:50;97474.00;;;22.45;56.51
46722;BME280;32455;43.430;23.136;2022-09-16T04:44:35;97470.25;;;22.33;56.10
46722;BME280;32455;43.430;23.136;2022-09-16T04:47:21;97480.50;;;21.96;58.60
46722;BME280;32455;43.430;23.136;2022-09-16T04:50:07;97488.75;;;21.73;60.10
46722;BME280;32455;43.430;23.136;2022-09-16T04:52:53;97483.59;;;21.72;60.14
46722;BME280;32455;43.430;23.136;2022-09-16T04:55:38;97480.06;;;21.71;60.50
46722;BME280;32455;43.430;23.136;2022-09-16T04:58:24;97479.00;;;21.81;60.42
46722;BME280;32455;43.430;23.136;2022-09-16T05:01:11;97470.03;;;21.67;61.22
46722;BME280;32455;43.430;23.136;2022-09-16T05:04:02;97479.06;;;21.67;62.84
46722;BME280;32455;43.430;23.136;2022-09-16T05:06:48;97481.09;;;21.84;61.62
46722;BME280;32455;43.430;23.136;2022-09-16T05:09:34;97471.44;;;21.87;61.33
46722;BME280;32455;43.430;23.136;2022-09-16T05:12:21;97469.22;;;21.89;60.88
46722;BME280;32455;43.430;23.136;2022-09-16T05:15:07;97482.84;;;22.11;59.40
46722;BME280;32455;43.430;23.136;2022-09-16T05:17:53;97461.03;;;22.20;59.74
46722;BME280;32455;43.430;23.136;2022-09-16T05:20:39;97456.50;;;22.15;59.74
46722;BME280;32455;43.430;23.136;2022-09-16T05:23:24;97446.63;;;22.06;61.10
46722;BME280;32455;43.430;23.136;2022-09-16T05:26:13;97448.63;;;21.60;64.97
46722;BME280;32455;43.430;23.136;2022-09-16T05:29:01;97439.56;;;21.51;64.92
46722;BME280;32455;43.430;23.136;2022-09-16T05:31:48;97438.34;;;21.66;63.14
46722;BME280;32455;43.430;23.136;2022-09-16T05:34:35;97441.88;;;21.66;63.75
46722;BME280;32455;43.430;23.136;2022-09-16T05:37:21;97438.47;;;21.61;64.33
46722;BME280;32455;43.430;23.136;2022-09-16T05:40:07;97449.75;;;21.59;64.68
46722;BME280;32455;43.430;23.136;2022-09-16T05:42:52;97446.75;;;21.69;63.94
46722;BME280;32455;43.430;23.136;2022-09-16T05:45:38;97448.06;;;21.72;63.67
46722;BME280;32455;43.430;23.136;2022-09-16T05:48:24;97446.66;;;21.83;63.35
46722;BME280;32455;43.430;23.136;2022-09-16T05:51:13;97451.19;;;21.88;62.86
46722;BME280;32455;43.430;23.136;2022-09-16T05:53:59;97449.47;;;22.00;62.22
46722;BME280;32455;43.430;23.136;2022-09-16T05:56:46;97452.81;;;22.20;62.00
46722;BME280;32455;43.430;23.136;2022-09-16T05:59:31;97453.38;;;22.39;61.19
46722;BME280;32455;43.430;23.136;2022-09-16T06:02:15;97456.16;;;22.57;60.43
46722;BME280;32455;43.430;23.136;2022-09-16T06:05:01;97452.81;;;22.68;60.41
46722;BME280;32455;43.430;23.136;2022-09-16T06:07:46;97440.72;;;22.78;61.14
46722;BME280;32455;43.430;23.136;2022-09-16T06:10:36;97445.00;;;23.02;59.94
46722;BME280;32455;43.430;23.136;2022-09-16T06:13:22;97443.69;;;23.08;59.66
46722;BME280;32455;43.430;23.136;2022-09-16T06:16:09;97440.31;;;23.11;62.88
46722;BME280;32455;43.430;23.136;2022-09-16T06:18:55;97452.09;;;23.11;64.16
46722;BME280;32455;43.430;23.136;2022-09-16T06:21:42;97455.78;;;23.24;60.73
46722;BME280;32455;43.430;23.136;2022-09-16T06:24:28;97467.09;;;23.40;58.82
46722;BME280;32455;43.430;23.136;2022-09-16T06:27:14;97459.19;;;23.38;59.71
46722;BME280;32455;43.430;23.136;2022-09-16T06:30:00;97481.75;;;23.61;57.57
46722;BME280;32455;43.430;23.136;2022-09-16T06:32:46;97486.28;;;23.57;58.34
46722;BME280;32455;43.430;23.136;2022-09-16T06:35:33;97486.63;;;23.47;59.05
46722;BME280;32455;43.430;23.136;2022-09-16T06:38:19;97493.81;;;23.08;60.07
46722;BME280;32455;43.430;23.136;2022-09-16T06:41:06;97496.28;;;23.18;60.55
46722;BME280;32455;43.430;23.136;2022-09-16T06:43:52;97497.88;;;23.11;60.67
46722;BME280;32455;43.430;23.136;2022-09-16T06:46:38;97508.50;;;23.04;59.70
46722;BME280;32455;43.430;23.136;2022-09-16T06:49:24;97505.28;;;23.10;59.73
46722;BME280;32455;43.430;23.136;2022-09-16T06:52:10;97514.47;;;22.97;60.60
46722;BME280;32455;43.430;23.136;2022-09-16T06:54:57;97511.97;;;22.87;61.43
46722;BME280;32455;43.430;23.136;2022-09-16T06:57:42;97500.31;;;22.64;64.43
46722;BME280;32455;43.430;23.136;2022-09-16T07:00:27;97497.69;;;22.50;65.07
46722;BME280;32455;43.430;23.136;2022-09-16T07:03:13;97496.28;;;22.53;65.07
46722;BME280;32455;43.430;23.136;2022-09-16T07:06:00;97500.66;;;22.71;63.56
46722;BME280;32455;43.430;23.136;2022-09-16T07:08:46;97509.88;;;22.75;63.70
46722;BME280;32455;43.430;23.136;2022-09-16T07:11:33;97498.50;;;22.50;66.19
46722;BME280;32455;43.430;23.136;2022-09-16T07:14:18;97494.44;;;22.39;67.07
46722;BME280;32455;43.430;23.136;2022-09-16T07:17:03;97493.41;;;22.66;65.72
46722;BME280;32455;43.430;23.136;2022-09-16T07:19:49;97508.19;;;22.96;65.36
46722;BME280;32455;43.430;23.136;2022-09-16T07:22:34;97512.19;;;23.08;64.43
46722;BME280;32455;43.430;23.136;2022-09-16T07:25:20;97507.88;;;23.24;64.84
46722;BME280;32455;43.430;23.136;2022-09-16T07:28:05;97512.56;;;23.49;63.90
46722;BME280;32455;43.430;23.136;2022-09-16T07:30:50;97523.69;;;23.62;63.09
46722;BME280;32455;43.430;23.136;2022-09-16T07:33:38;97521.28;;;23.43;63.58
46722;BME280;32455;43.430;23.136;2022-09-16T07:36:28;97518.88;;;23.76;62.52
46722;BME280;32455;43.430;23.136;2022-09-16T07:39:17;97521.59;;;23.93;62.20
46722;BME280;32455;43.430;23.136;2022-09-16T07:42:03;97510.72;;;24.14;61.00
46722;BME280;32455;43.430;23.136;2022-09-16T07:44:48;97512.00;;;24.26;59.56
46722;BME280;32455;43.430;23.136;2022-09-16T07:47:34;97505.03;;;24.28;59.55
46722;BME280;32455;43.430;23.136;2022-09-16T07:50:19;97509.28;;;24.17;59.21
46722;BME280;32455;43.430;23.136;2022-09-16T07:53:04;97505.38;;;24.18;59.50
46722;BME280;32455;43.430;23.136;2022-09-16T07:55:51;97502.25;;;24.45;59.27
46722;BME280;32455;43.430;23.136;2022-09-16T07:58:36;97513.25;;;24.75;58.69
46722;BME280;32455;43.430;23.136;2022-09-16T08:01:23;97510.25;;;24.97;58.37
46722;BME280;32455;43.430;23.136;2022-09-16T08:04:09;97504.09;;;24.92;57.94
46722;BME280;32455;43.430;23.136;2022-09-16T08:06:54;97497.94;;;24.95;57.63
46722;BME280;32455;43.430;23.136;2022-09-16T08:09:40;97505.69;;;24.72;58.31
46722;BME280;32455;43.430;23.136;2022-09-16T08:12:25;97501.03;;;24.93;57.19
46722;BME280;32455;43.430;23.136;2022-09-16T08:15:16;97511.34;;;25.26;57.97
46722;BME280;32455;43.430;23.136;2022-09-16T08:18:01;97511.47;;;25.09;57.69
46722;BME280;32455;43.430;23.136;2022-09-16T08:20:47;97509.00;;;25.16;57.97
46722;BME280;32455;43.430;23.136;2022-09-16T08:23:33;97495.47;;;25.11;58.60
46722;BME280;32455;43.430;23.136;2022-09-16T08:26:19;97502.16;;;25.22;58.70
46722;BME280;32455;43.430;23.136;2022-09-16T08:29:05;97495.25;;;25.16;58.28
46722;BME280;32455;43.430;23.136;2022-09-16T08:31:51;97493.97;;;25.13;57.99
46722;BME280;32455;43.430;23.136;2022-09-16T08:34:37;97479.31;;;25.01;59.80
46722;BME280;32455;43.430;23.136;2022-09-16T08:37:23;97485.63;;;25.01;58.67
46722;BME280;32455;43.430;23.136;2022-09-16T08:40:14;97483.59;;;24.89;59.52
46722;BME280;32455;43.430;23.136;2022-09-16T08:46:08;97477.78;;;24.61;60.91
46722;BME280;32455;43.430;23.136;2022-09-16T08:51:56;97496.72;;;24.54;67.39
46722;BME280;32455;43.430;23.136;2022-09-16T08:54:50;97491.16;;;24.24;66.47
46722;BME280;32455;43.430;23.136;2022-09-16T08:57:45;97490.91;;;24.56;62.48
46722;BME280;32455;43.430;23.136;2022-09-16T09:00:33;97498.44;;;24.67;61.97
46722;BME280;32455;43.430;23.136;2022-09-16T09:03:40;97501.50;;;24.66;61.58
46722;BME280;32455;43.430;23.136;2022-09-16T09:06:49;97508.38;;;24.51;61.67
46722;BME280;32455;43.430;23.136;2022-09-16T09:12:48;97504.19;;;24.36;64.38
46722;BME280;32455;43.430;23.136;2022-09-16T09:15:42;97510.91;;;24.09;67.66
46722;BME280;32455;43.430;23.136;2022-09-16T09:31:34;97493.59;;;24.64;64.20
46722;BME280;32455;43.430;23.136;2022-09-16T09:37:47;97487.22;;;24.81;60.89
46722;BME280;32455;43.430;23.136;2022-09-16T09:40:56;97497.00;;;24.91;62.36
46722;BME280;32455;43.430;23.136;2022-09-16T09:44:11;97484.75;;;24.88;61.15
46722;BME280;32455;43.430;23.136;2022-09-16T09:47:10;97484.50;;;24.72;65.13
46722;BME280;32455;43.430;23.136;2022-09-16T09:49:57;97488.41;;;24.71;64.09
46722;BME280;32455;43.430;23.136;2022-09-16T10:02:01;97473.63;;;24.08;69.86
46722;BME280;32455;43.430;23.136;2022-09-16T10:04:48;97467.00;;;24.01;72.27
46722;BME280;32455;43.430;23.136;2022-09-16T10:07:36;97475.91;;;23.89;73.51
46722;BME280;32455;43.430;23.136;2022-09-16T10:10:24;97472.16;;;24.02;72.63
46722;BME280;32455;43.430;23.136;2022-09-16T10:13:11;97480.41;;;24.02;72.16
46722;BME280;32455;43.430;23.136;2022-09-16T10:16:11;97486.34;;;24.13;71.19
46722;BME280;32455;43.430;23.136;2022-09-16T10:19:07;97480.69;;;24.18;69.75
46722;BME280;32455;43.430;23.136;2022-09-16T10:21:56;97487.81;;;24.10;70.65
46722;BME280;32455;43.430;23.136;2022-09-16T10:25:04;97505.78;;;23.99;72.88
46722;BME280;32455;43.430;23.136;2022-09-16T10:27:58;97515.44;;;24.05;73.32
46722;BME280;32455;43.430;23.136;2022-09-16T10:30:48;97498.66;;;23.98;77.14
46722;BME280;32455;43.430;23.136;2022-09-16T10:33:41;97501.31;;;23.68;78.51
46722;BME280;32455;43.430;23.136;2022-09-16T10:36:32;97481.78;;;23.70;78.41
46722;BME280;32455;43.430;23.136;2022-09-16T10:39:23;97470.13;;;23.64;82.49
46722;BME280;32455;43.430;23.136;2022-09-16T10:42:24;97483.03;;;23.20;87.17
46722;BME280;32455;43.430;23.136;2022-09-16T10:45:49;97490.28;;;23.08;82.63
46722;BME280;32455;43.430;23.136;2022-09-16T10:48:29;97478.84;;;23.40;81.34
46722;BME280;32455;43.430;23.136;2022-09-16T10:51:26;97481.59;;;23.49;79.72
46722;BME280;32455;43.430;23.136;2022-09-16T10:54:25;97467.91;;;23.32;78.56
46722;BME280;32455;43.430;23.136;2022-09-16T10:57:27;97464.81;;;23.42;77.86
46722;BME280;32455;43.430;23.136;2022-09-16T11:00:21;97458.69;;;23.28;81.31
46722;BME280;32455;43.430;23.136;2022-09-16T11:06:58;97429.22;;;22.41;93.90
46722;BME280;32455;43.430;23.136;2022-09-16T11:12:56;97408.13;;;22.42;91.89
46722;BME280;32455;43.430;23.136;2022-09-16T11:16:23;97409.88;;;22.29;88.67
46722;BME280;32455;43.430;23.136;2022-09-16T11:19:46;97408.13;;;22.33;85.21
46722;BME280;32455;43.430;23.136;2022-09-16T11:25:41;97394.81;;;22.58;79.90
46722;BME280;32455;43.430;23.136;2022-09-16T11:34:36;97391.50;;;23.04;79.82
46722;BME280;32455;43.430;23.136;2022-09-16T11:37:51;97398.22;;;23.24;78.78
46722;BME280;32455;43.430;23.136;2022-09-16T11:40:46;97395.47;;;23.33;77.93
46722;BME280;32455;43.430;23.136;2022-09-16T11:46:56;97407.56;;;23.49;72.26
46722;BME280;32455;43.430;23.136;2022-09-16T11:59:01;97376.72;;;23.78;70.32
46722;BME280;32455;43.430;23.136;2022-09-16T12:02:00;97372.19;;;23.73;68.33
46722;BME280;32455;43.430;23.136;2022-09-16T12:10:58;97352.81;;;23.79;65.79
46722;BME280;32455;43.430;23.136;2022-09-16T12:17:21;97347.03;;;23.71;65.90
46722;BME280;32455;43.430;23.136;2022-09-16T12:20:32;97365.88;;;23.82;66.91
46722;BME280;32455;43.430;23.136;2022-09-16T12:23:19;97360.69;;;23.80;67.44
46722;BME280;32455;43.430;23.136;2022-09-16T12:26:20;97355.75;;;23.73;68.64
46722;BME280;32455;43.430;23.136;2022-09-16T12:29:54;97366.88;;;23.77;69.30
46722;BME280;32455;43.430;23.136;2022-09-16T12:32:45;97355.06;;;23.77;68.23
46722;BME280;32455;43.430;23.136;2022-09-16T12:38:20;97347.38;;;23.70;68.08
46722;BME280;32455;43.430;23.136;2022-09-16T12:44:24;97369.91;;;23.76;70.23
46722;BME280;32455;43.430;23.136;2022-09-16T12:50:53;97371.56;;;23.68;68.98
46722;BME280;32455;43.430;23.136;2022-09-16T12:54:16;97379.13;;;23.62;68.48
46722;BME280;32455;43.430;23.136;2022-09-16T13:03:13;97383.50;;;23.55;66.36
46722;BME280;32455;43.430;23.136;2022-09-16T13:06:06;97384.78;;;23.57;65.62
46722;BME280;32455;43.430;23.136;2022-09-16T13:12:20;97396.59;;;23.49;67.56
46722;BME280;32455;43.430;23.136;2022-09-16T13:15:07;97391.28;;;23.44;68.42
46722;BME280;32455;43.430;23.136;2022-09-16T13:17:53;97401.13;;;23.45;68.66
46722;BME280;32455;43.430;23.136;2022-09-16T13:20:40;97406.75;;;23.48;65.15
46722;BME280;32455;43.430;23.136;2022-09-16T13:23:33;97409.16;;;23.59;65.32
46722;BME280;32455;43.430;23.136;2022-09-16T13:26:20;97410.09;;;23.63;66.05
46722;BME280;32455;43.430;23.136;2022-09-16T13:38:35;97419.50;;;23.53;60.60
46722;BME280;32455;43.430;23.136;2022-09-16T13:41:35;97395.81;;;23.40;62.09
46722;BME280;32455;43.430;23.136;2022-09-16T13:44:27;97377.09;;;23.24;61.81
46722;BME280;32455;43.430;23.136;2022-09-16T13:47:30;97387.28;;;23.15;62.49
46722;BME280;32455;43.430;23.136;2022-09-16T13:50:21;97368.91;;;23.07;60.73
46722;BME280;32455;43.430;23.136;2022-09-16T14:05:50;97339.72;;;22.85;64.03
46722;BME280;32455;43.430;23.136;2022-09-16T14:14:58;97345.66;;;21.95;74.06
46722;BME280;32455;43.430;23.136;2022-09-16T14:17:49;97338.25;;;21.96;72.33
46722;BME280;32455;43.430;23.136;2022-09-16T14:20:36;97335.38;;;22.01;73.02
46722;BME280;32455;43.430;23.136;2022-09-16T14:23:24;97314.00;;;22.03;73.26
46722;BME280;32455;43.430;23.136;2022-09-16T14:26:18;97313.44;;;21.84;75.03
46722;BME280;32455;43.430;23.136;2022-09-16T14:29:04;97286.41;;;21.73;74.18
46722;BME280;32455;43.430;23.136;2022-09-16T14:31:53;97268.84;;;21.74;71.10
46722;BME280;32455;43.430;23.136;2022-09-16T14:34:38;97276.63;;;21.90;69.40
46722;BME280;32455;43.430;23.136;2022-09-16T14:37:28;97294.19;;;21.89;67.53
46722;BME280;32455;43.430;23.136;2022-09-16T14:40:16;97306.81;;;22.16;66.44
46722;BME280;32455;43.430;23.136;2022-09-16T14:43:05;97287.69;;;22.33;64.10
46722;BME280;32455;43.430;23.136;2022-09-16T14:45:54;97284.16;;;22.41;63.20
46722;BME280;32455;43.430;23.136;2022-09-16T14:48:42;97278.16;;;22.39;62.89
46722;BME280;32455;43.430;23.136;2022-09-16T14:51:28;97277.69;;;22.46;62.77
46722;BME280;32455;43.430;23.136;2022-09-16T14:54:18;97278.34;;;22.43;61.87
46722;BME280;32455;43.430;23.136;2022-09-16T14:57:24;97280.09;;;22.39;61.74
46722;BME280;32455;43.430;23.136;2022-09-16T15:00:14;97264.66;;;22.43;60.68
46722;BME280;32455;43.430;23.136;2022-09-16T15:03:13;97264.00;;;22.46;61.34
46722;BME280;32455;43.430;23.136;2022-09-16T15:06:13;97257.41;;;22.56;59.46
46722;BME280;32455;43.430;23.136;2022-09-16T15:09:05;97240.78;;;22.69;59.56
46722;BME280;32455;43.430;23.136;2022-09-16T15:11:54;97242.72;;;22.69;59.86
46722;BME280;32455;43.430;23.136;2022-09-16T15:14:40;97213.25;;;22.74;58.24
46722;BME280;32455;43.430;23.136;2022-09-16T15:17:27;97198.63;;;22.70;58.63
46722;BME280;32455;43.430;23.136;2022-09-16T15:20:20;97207.59;;;22.80;58.42
46722;BME280;32455;43.430;23.136;2022-09-16T15:23:19;97222.91;;;22.72;59.34
46722;BME280;32455;43.430;23.136;2022-09-16T15:26:17;97223.25;;;22.79;59.21
46722;BME280;32455;43.430;23.136;2022-09-16T15:29:10;97165.75;;;22.70;58.59
46722;BME280;32455;43.430;23.136;2022-09-16T15:32:16;97196.00;;;23.00;57.48
46722;BME280;32455;43.430;23.136;2022-09-16T15:35:14;97201.97;;;22.93;58.15
46722;BME280;32455;43.430;23.136;2022-09-16T15:38:10;97205.50;;;22.94;57.64
46722;BME280;32455;43.430;23.136;2022-09-16T15:41:11;97196.63;;;22.97;58.73
46722;BME280;32455;43.430;23.136;2022-09-16T15:43:58;97187.28;;;22.89;58.38
46722;BME280;32455;43.430;23.136;2022-09-16T15:46:48;97200.84;;;22.77;58.28
46722;BME280;32455;43.430;23.136;2022-09-16T15:49:38;97202.59;;;22.90;58.04
46722;BME280;32455;43.430;23.136;2022-09-16T15:52:24;97192.78;;;22.81;57.91
46722;BME280;32455;43.430;23.136;2022-09-16T15:55:10;97200.84;;;22.77;56.98
46722;BME280;32455;43.430;23.136;2022-09-16T15:58:05;97204.06;;;22.79;57.95
46722;BME280;32455;43.430;23.136;2022-09-16T16:03:55;97214.53;;;22.77;57.85
46722;BME280;32455;43.430;23.136;2022-09-16T16:09:43;97205.19;;;22.69;58.03
46722;BME280;32455;43.430;23.136;2022-09-16T16:12:29;97185.91;;;22.57;58.69
46722;BME280;32455;43.430;23.136;2022-09-16T16:15:18;97204.56;;;22.72;57.60
46722;BME280;32455;43.430;23.136;2022-09-16T16:18:06;97191.06;;;22.59;56.65
46722;BME280;32455;43.430;23.136;2022-09-16T16:20:53;97204.41;;;22.69;56.44
46722;BME280;32455;43.430;23.136;2022-09-16T16:23:39;97207.47;;;22.59;56.13
46722;BME280;32455;43.430;23.136;2022-09-16T16:26:25;97200.41;;;22.49;56.93
46722;BME280;32455;43.430;23.136;2022-09-16T16:29:10;97204.75;;;22.50;57.08
46722;BME280;32455;43.430;23.136;2022-09-16T16:32:11;97199.47;;;22.36;57.53
46722;BME280;32455;43.430;23.136;2022-09-16T16:34:57;97195.59;;;22.20;58.57
46722;BME280;32455;43.430;23.136;2022-09-16T16:37:43;97191.34;;;22.05;58.56
46722;BME280;32455;43.430;23.136;2022-09-16T16:40:28;97198.44;;;21.89;60.09
46722;BME280;32455;43.430;23.136;2022-09-16T16:43:14;97192.97;;;21.80;60.70
46722;BME280;32455;43.430;23.136;2022-09-16T16:45:59;97182.94;;;21.67;60.86
46722;BME280;32455;43.430;23.136;2022-09-16T16:48:44;97170.19;;;21.45;61.83
46722;BME280;32455;43.430;23.136;2022-09-16T16:51:30;97160.13;;;21.63;60.14
46722;BME280;32455;43.430;23.136;2022-09-16T16:54:16;97142.59;;;21.81;57.67
46722;BME280;32455;43.430;23.136;2022-09-16T16:57:02;97157.56;;;22.10;57.45
46722;BME280;32455;43.430;23.136;2022-09-16T16:59:48;97146.97;;;22.34;56.74
46722;BME280;32455;43.430;23.136;2022-09-16T17:02:33;97169.44;;;22.74;55.41
46722;BME280;32455;43.430;23.136;2022-09-16T17:05:19;97179.56;;;23.00;54.27
46722;BME280;32455;43.430;23.136;2022-09-16T17:08:04;97181.44;;;23.17;54.15
46722;BME280;32455;43.430;23.136;2022-09-16T17:11:07;97164.16;;;23.16;54.40
46722;BME280;32455;43.430;23.136;2022-09-16T17:13:58;97177.66;;;23.30;53.33
46722;BME280;32455;43.430;23.136;2022-09-16T17:16:44;97165.16;;;23.41;53.03
46722;BME280;32455;43.430;23.136;2022-09-16T17:19:31;97165.78;;;23.47;52.74
46722;BME280;32455;43.430;23.136;2022-09-16T17:22:16;97176.72;;;23.56;52.69
46722;BME280;32455;43.430;23.136;2022-09-16T17:25:02;97166.59;;;23.47;52.62
46722;BME280;32455;43.430;23.136;2022-09-16T17:27:48;97184.81;;;23.52;53.12
46722;BME280;32455;43.430;23.136;2022-09-16T17:30:33;97200.56;;;23.55;53.43